sensor_id;sensor_type;location;lat;lon;timestamp;P1;durP1;ratioP1;P2;durP2;ratioP2
12363;SDS011;6246;50.826;4.712;2022-07-23T00:00:14;3.10;;;2.90;;
12363;SDS011;6246;50.826;4.712;2022-07-23T00:02:40;3.40;;;3.20;;
12363;SDS011;6246;50.826;4.712;2022-07-23T00:05:06;2.90;;;2.70;;
12363;SDS011;6246;50.826;4.712;2022-07-23T00:07:33;3.30;;;3.10;;
12363;SDS011;6246;50.826;4.712;2022-07-23T00:09:59;3.20;;;3.00;;
12363;SDS011;6246;50.826;4.712;2022-07-23T00:12:25;2.83;;;2.72;;
12363;SDS011;6246;50.826;4.712;2022-07-23T00:14:51;3.05;;;2.90;;
12363;SDS011;6246;50.826;4.712;2022-07-23T00:17:17;2.90;;;2.70;;
12363;SDS011;6246;50.826;4.712;2022-07-23T00:19:43;3.00;;;2.80;;
12363;SDS011;6246;50.826;4.712;2022-07-23T00:22:09;2.65;;;2.55;;
12363;SDS011;6246;50.826;4.712;2022-07-23T00:24:35;3.03;;;2.75;;
12363;SDS011;6246;50.826;4.712;2022-07-23T00:27:01;3.47;;;3.28;;
12363;SDS011;6246;50.826;4.712;2022-07-23T00:29:27;2.88;;;2.78;;
12363;SDS011;6246;50.826;4.712;2022-07-23T00:31:53;3.28;;;2.95;;
12363;SDS011;6246;50.826;4.712;2022-07-23T00:34:19;2.92;;;2.72;;
12363;SDS011;6246;50.826;4.712;2022-07-23T00:36:45;3.10;;;2.90;;
12363;SDS011;6246;50.826;4.712;2022-07-23T00:39:11;3.70;;;2.70;;
12363;SDS011;6246;50.826;4.712;2022-07-23T00:41:37;3.20;;;3.00;;
12363;SDS011;6246;50.826;4.712;2022-07-23T00:44:20;2.95;;;2.75;;
12363;SDS011;6246;50.826;4.712;2022-07-23T00:46:47;2.60;;;2.50;;
12363;SDS011;6246;50.826;4.712;2022-07-23T00:49:14;3.10;;;2.90;;
12363;SDS011;6246;50.826;4.712;2022-07-23T00:51:40;2.95;;;2.75;;
12363;SDS011;6246;50.826;4.712;2022-07-23T00:54:06;2.85;;;2.70;;
12363;SDS011;6246;50.826;4.712;2022-07-23T00:56:32;2.70;;;2.50;;
12363;SDS011;6246;50.826;4.712;2022-07-23T00:58:59;2.90;;;2.70;;
12363;SDS011;6246;50.826;4.712;2022-07-23T01:01:26;2.90;;;2.70;;
12363;SDS011;6246;50.826;4.712;2022-07-23T01:03:52;2.78;;;2.53;;
12363;SDS011;6246;50.826;4.712;2022-07-23T01:06:18;3.08;;;2.88;;
12363;SDS011;6246;50.826;4.712;2022-07-23T01:08:44;2.80;;;2.70;;
12363;SDS011;6246;50.826;4.712;2022-07-23T01:11:10;3.40;;;3.10;;
12363;SDS011;6246;50.826;4.712;2022-07-23T01:13:40;2.85;;;2.63;;
12363;SDS011;6246;50.826;4.712;2022-07-23T01:16:06;2.75;;;2.55;;
12363;SDS011;6246;50.826;4.712;2022-07-23T01:18:33;3.00;;;2.80;;
12363;SDS011;6246;50.826;4.712;2022-07-23T01:20:59;3.03;;;2.83;;
12363;SDS011;6246;50.826;4.712;2022-07-23T01:23:25;2.28;;;2.17;;
12363;SDS011;6246;50.826;4.712;2022-07-23T01:25:54;2.47;;;2.38;;
12363;SDS011;6246;50.826;4.712;2022-07-23T01:28:20;2.55;;;2.45;;
12363;SDS011;6246;50.826;4.712;2022-07-23T01:30:47;2.22;;;2.13;;
12363;SDS011;6246;50.826;4.712;2022-07-23T01:33:13;2.78;;;2.40;;
12363;SDS011;6246;50.826;4.712;2022-07-23T01:35:39;2.95;;;2.75;;
12363;SDS011;6246;50.826;4.712;2022-07-23T01:38:05;2.63;;;2.53;;
12363;SDS011;6246;50.826;4.712;2022-07-23T01:40:31;2.47;;;2.38;;
12363;SDS011;6246;50.826;4.712;2022-07-23T01:42:57;2.80;;;2.55;;
12363;SDS011;6246;50.826;4.712;2022-07-23T01:45:23;2.30;;;2.20;;
12363;SDS011;6246;50.826;4.712;2022-07-23T01:47:49;2.67;;;2.47;;
12363;SDS011;6246;50.826;4.712;2022-07-23T01:50:16;2.63;;;2.15;;
12363;SDS011;6246;50.826;4.712;2022-07-23T01:52:42;2.10;;;2.00;;
12363;SDS011;6246;50.826;4.712;2022-07-23T01:55:08;2.60;;;2.40;;
12363;SDS011;6246;50.826;4.712;2022-07-23T01:57:34;2.28;;;2.17;;
12363;SDS011;6246;50.826;4.712;2022-07-23T02:00:00;2.70;;;2.50;;
12363;SDS011;6246;50.826;4.712;2022-07-23T02:02:26;2.38;;;2.28;;
12363;SDS011;6246;50.826;4.712;2022-07-23T02:04:52;2.20;;;2.10;;
12363;SDS011;6246;50.826;4.712;2022-07-23T02:07:18;2.00;;;1.90;;
12363;SDS011;6246;50.826;4.712;2022-07-23T02:09:44;2.65;;;2.45;;
12363;SDS011;6246;50.826;4.712;2022-07-23T02:12:10;2.33;;;2.20;;
12363;SDS011;6246;50.826;4.712;2022-07-23T02:14:37;2.10;;;2.00;;
12363;SDS011;6246;50.826;4.712;2022-07-23T02:17:03;2.50;;;2.30;;
12363;SDS011;6246;50.826;4.712;2022-07-23T02:19:29;2.08;;;1.98;;
12363;SDS011;6246;50.826;4.712;2022-07-23T02:21:55;2.30;;;2.20;;
12363;SDS011;6246;50.826;4.712;2022-07-23T02:24:21;2.35;;;2.25;;
12363;SDS011;6246;50.826;4.712;2022-07-23T02:26:47;2.60;;;2.50;;
12363;SDS011;6246;50.826;4.712;2022-07-23T02:29:13;2.45;;;2.28;;
12363;SDS011;6246;50.826;4.712;2022-07-23T02:31:39;1.98;;;1.88;;
12363;SDS011;6246;50.826;4.712;2022-07-23T02:34:05;2.38;;;1.98;;
12363;SDS011;6246;50.826;4.712;2022-07-23T02:36:32;1.88;;;1.70;;
12363;SDS011;6246;50.826;4.712;2022-07-23T02:38:58;2.15;;;2.05;;
12363;SDS011;6246;50.826;4.712;2022-07-23T02:41:24;2.33;;;1.85;;
12363;SDS011;6246;50.826;4.712;2022-07-23T02:43:50;2.28;;;2.17;;
12363;SDS011;6246;50.826;4.712;2022-07-23T02:46:16;2.03;;;1.92;;
12363;SDS011;6246;50.826;4.712;2022-07-23T02:48:42;2.40;;;2.30;;
12363;SDS011;6246;50.826;4.712;2022-07-23T02:51:08;1.92;;;1.83;;
12363;SDS011;6246;50.826;4.712;2022-07-23T02:53:34;2.22;;;2.13;;
12363;SDS011;6246;50.826;4.712;2022-07-23T02:56:00;2.00;;;1.90;;
12363;SDS011;6246;50.826;4.712;2022-07-23T02:58:27;2.00;;;1.90;;
12363;SDS011;6246;50.826;4.712;2022-07-23T03:00:53;1.83;;;1.73;;
12363;SDS011;6246;50.826;4.712;2022-07-23T03:03:19;2.08;;;1.98;;
12363;SDS011;6246;50.826;4.712;2022-07-23T03:05:45;2.25;;;2.15;;
12363;SDS011;6246;50.826;4.712;2022-07-23T03:08:11;2.05;;;1.95;;
12363;SDS011;6246;50.826;4.712;2022-07-23T03:10:37;1.55;;;1.45;;
12363;SDS011;6246;50.826;4.712;2022-07-23T03:13:03;1.90;;;1.80;;
12363;SDS011;6246;50.826;4.712;2022-07-23T03:15:29;2.13;;;2.03;;
12363;SDS011;6246;50.826;4.712;2022-07-23T03:17:55;3.33;;;1.80;;
12363;SDS011;6246;50.826;4.712;2022-07-23T03:20:21;2.13;;;2.03;;
12363;SDS011;6246;50.826;4.712;2022-07-23T03:22:47;2.15;;;2.03;;
12363;SDS011;6246;50.826;4.712;2022-07-23T03:25:13;1.90;;;1.80;;
12363;SDS011;6246;50.826;4.712;2022-07-23T03:27:39;1.95;;;1.85;;
12363;SDS011;6246;50.826;4.712;2022-07-23T03:30:05;1.73;;;1.73;;
12363;SDS011;6246;50.826;4.712;2022-07-23T03:32:32;1.83;;;1.73;;
12363;SDS011;6246;50.826;4.712;2022-07-23T03:34:58;2.08;;;1.98;;
12363;SDS011;6246;50.826;4.712;2022-07-23T03:37:25;2.10;;;2.00;;
12363;SDS011;6246;50.826;4.712;2022-07-23T03:39:51;2.05;;;1.60;;
12363;SDS011;6246;50.826;4.712;2022-07-23T03:42:17;2.08;;;1.98;;
12363;SDS011;6246;50.826;4.712;2022-07-23T03:44:43;2.08;;;1.65;;
12363;SDS011;6246;50.826;4.712;2022-07-23T03:47:09;1.48;;;1.38;;
12363;SDS011;6246;50.826;4.712;2022-07-23T03:49:35;3.08;;;1.90;;
12363;SDS011;6246;50.826;4.712;2022-07-23T03:52:01;1.70;;;1.60;;
12363;SDS011;6246;50.826;4.712;2022-07-23T03:54:28;2.20;;;2.05;;
12363;SDS011;6246;50.826;4.712;2022-07-23T03:56:54;1.77;;;1.73;;
12363;SDS011;6246;50.826;4.712;2022-07-23T03:59:20;1.70;;;1.58;;
12363;SDS011;6246;50.826;4.712;2022-07-23T04:01:46;1.90;;;1.80;;
12363;SDS011;6246;50.826;4.712;2022-07-23T04:04:12;2.00;;;1.90;;
12363;SDS011;6246;50.826;4.712;2022-07-23T04:06:38;1.80;;;1.70;;
12363;SDS011;6246;50.826;4.712;2022-07-23T04:09:04;1.45;;;1.45;;
12363;SDS011;6246;50.826;4.712;2022-07-23T04:11:30;2.10;;;2.00;;
12363;SDS011;6246;50.826;4.712;2022-07-23T04:13:56;1.90;;;1.80;;
12363;SDS011;6246;50.826;4.712;2022-07-23T04:16:22;2.00;;;1.90;;
12363;SDS011;6246;50.826;4.712;2022-07-23T04:18:48;1.60;;;1.50;;
12363;SDS011;6246;50.826;4.712;2022-07-23T04:21:14;2.42;;;2.08;;
12363;SDS011;6246;50.826;4.712;2022-07-23T04:23:40;1.90;;;1.80;;
12363;SDS011;6246;50.826;4.712;2022-07-23T04:26:06;1.70;;;1.60;;
12363;SDS011;6246;50.826;4.712;2022-07-23T04:28:32;1.73;;;1.63;;
12363;SDS011;6246;50.826;4.712;2022-07-23T04:30:58;1.50;;;1.40;;
12363;SDS011;6246;50.826;4.712;2022-07-23T04:33:24;1.65;;;1.52;;
12363;SDS011;6246;50.826;4.712;2022-07-23T04:35:50;2.13;;;2.03;;
12363;SDS011;6246;50.826;4.712;2022-07-23T04:38:16;1.90;;;1.80;;
12363;SDS011;6246;50.826;4.712;2022-07-23T04:40:42;1.70;;;1.60;;
12363;SDS011;6246;50.826;4.712;2022-07-23T04:43:08;1.73;;;1.63;;
12363;SDS011;6246;50.826;4.712;2022-07-23T04:45:34;1.88;;;1.77;;
12363;SDS011;6246;50.826;4.712;2022-07-23T04:48:00;1.67;;;1.58;;
12363;SDS011;6246;50.826;4.712;2022-07-23T04:50:26;1.60;;;1.60;;
12363;SDS011;6246;50.826;4.712;2022-07-23T04:52:52;1.60;;;1.60;;
12363;SDS011;6246;50.826;4.712;2022-07-23T04:55:18;2.05;;;1.95;;
12363;SDS011;6246;50.826;4.712;2022-07-23T04:57:44;2.08;;;1.88;;
12363;SDS011;6246;50.826;4.712;2022-07-23T05:00:11;1.88;;;1.67;;
12363;SDS011;6246;50.826;4.712;2022-07-23T05:02:37;1.20;;;1.20;;
12363;SDS011;6246;50.826;4.712;2022-07-23T05:05:03;1.50;;;1.40;;
12363;SDS011;6246;50.826;4.712;2022-07-23T05:07:29;1.90;;;1.80;;
12363;SDS011;6246;50.826;4.712;2022-07-23T05:09:55;1.50;;;1.40;;
12363;SDS011;6246;50.826;4.712;2022-07-23T05:12:21;1.98;;;1.88;;
12363;SDS011;6246;50.826;4.712;2022-07-23T05:14:47;1.88;;;1.50;;
12363;SDS011;6246;50.826;4.712;2022-07-23T05:17:13;2.58;;;1.30;;
12363;SDS011;6246;50.826;4.712;2022-07-23T05:19:39;1.40;;;1.40;;
12363;SDS011;6246;50.826;4.712;2022-07-23T05:22:05;1.67;;;1.60;;
12363;SDS011;6246;50.826;4.712;2022-07-23T05:24:31;1.65;;;1.55;;
12363;SDS011;6246;50.826;4.712;2022-07-23T05:26:57;1.42;;;1.42;;
12363;SDS011;6246;50.826;4.712;2022-07-23T05:29:23;1.53;;;1.43;;
12363;SDS011;6246;50.826;4.712;2022-07-23T05:31:49;1.50;;;1.50;;
12363;SDS011;6246;50.826;4.712;2022-07-23T05:34:15;1.40;;;1.40;;
12363;SDS011;6246;50.826;4.712;2022-07-23T05:36:41;1.70;;;1.60;;
12363;SDS011;6246;50.826;4.712;2022-07-23T05:39:07;1.48;;;1.45;;
12363;SDS011;6246;50.826;4.712;2022-07-23T05:41:33;1.70;;;1.60;;
12363;SDS011;6246;50.826;4.712;2022-07-23T05:43:59;1.50;;;1.40;;
12363;SDS011;6246;50.826;4.712;2022-07-23T05:46:25;1.58;;;1.48;;
12363;SDS011;6246;50.826;4.712;2022-07-23T05:48:51;2.83;;;1.60;;
12363;SDS011;6246;50.826;4.712;2022-07-23T05:51:23;2.15;;;1.75;;
12363;SDS011;6246;50.826;4.712;2022-07-23T05:53:50;2.13;;;1.97;;
12363;SDS011;6246;50.826;4.712;2022-07-23T05:56:17;2.60;;;1.90;;
12363;SDS011;6246;50.826;4.712;2022-07-23T05:58:43;1.63;;;1.52;;
12363;SDS011;6246;50.826;4.712;2022-07-23T06:01:09;1.80;;;1.63;;
12363;SDS011;6246;50.826;4.712;2022-07-23T06:03:37;1.52;;;1.48;;
12363;SDS011;6246;50.826;4.712;2022-07-23T06:06:03;1.80;;;1.70;;
12363;SDS011;6246;50.826;4.712;2022-07-23T06:08:29;1.70;;;1.60;;
12363;SDS011;6246;50.826;4.712;2022-07-23T06:10:55;2.17;;;2.08;;
12363;SDS011;6246;50.826;4.712;2022-07-23T06:13:21;1.73;;;1.63;;
12363;SDS011;6246;50.826;4.712;2022-07-23T06:15:47;1.92;;;1.70;;
12363;SDS011;6246;50.826;4.712;2022-07-23T06:18:13;2.15;;;1.92;;
12363;SDS011;6246;50.826;4.712;2022-07-23T06:20:39;1.90;;;1.80;;
12363;SDS011;6246;50.826;4.712;2022-07-23T06:23:05;1.75;;;1.65;;
12363;SDS011;6246;50.826;4.712;2022-07-23T06:25:31;1.88;;;1.77;;
12363;SDS011;6246;50.826;4.712;2022-07-23T06:27:57;1.57;;;1.47;;
12363;SDS011;6246;50.826;4.712;2022-07-23T06:30:23;1.88;;;1.77;;
12363;SDS011;6246;50.826;4.712;2022-07-23T06:32:49;2.97;;;2.00;;
12363;SDS011;6246;50.826;4.712;2022-07-23T06:35:15;2.10;;;2.00;;
12363;SDS011;6246;50.826;4.712;2022-07-23T06:37:41;2.83;;;2.10;;
12363;SDS011;6246;50.826;4.712;2022-07-23T06:40:08;1.90;;;1.80;;
12363;SDS011;6246;50.826;4.712;2022-07-23T06:42:34;1.88;;;1.77;;
12363;SDS011;6246;50.826;4.712;2022-07-23T06:45:02;2.60;;;2.00;;
12363;SDS011;6246;50.826;4.712;2022-07-23T06:47:28;1.83;;;1.73;;
12363;SDS011;6246;50.826;4.712;2022-07-23T06:49:54;2.22;;;2.05;;
12363;SDS011;6246;50.826;4.712;2022-07-23T06:52:20;2.10;;;2.00;;
12363;SDS011;6246;50.826;4.712;2022-07-23T06:54:46;1.65;;;1.52;;
12363;SDS011;6246;50.826;4.712;2022-07-23T06:57:12;1.98;;;1.83;;
12363;SDS011;6246;50.826;4.712;2022-07-23T06:59:38;2.10;;;1.98;;
12363;SDS011;6246;50.826;4.712;2022-07-23T07:02:05;1.90;;;1.80;;
12363;SDS011;6246;50.826;4.712;2022-07-23T07:04:32;1.85;;;1.75;;
12363;SDS011;6246;50.826;4.712;2022-07-23T07:06:58;1.90;;;1.80;;
12363;SDS011;6246;50.826;4.712;2022-07-23T07:09:24;1.73;;;1.60;;
12363;SDS011;6246;50.826;4.712;2022-07-23T07:11:50;2.08;;;1.85;;
12363;SDS011;6246;50.826;4.712;2022-07-23T07:14:16;1.92;;;1.83;;
12363;SDS011;6246;50.826;4.712;2022-07-23T07:16:42;2.25;;;1.85;;
12363;SDS011;6246;50.826;4.712;2022-07-23T07:19:08;1.90;;;1.80;;
12363;SDS011;6246;50.826;4.712;2022-07-23T07:21:34;1.90;;;1.80;;
12363;SDS011;6246;50.826;4.712;2022-07-23T07:24:00;2.15;;;1.80;;
12363;SDS011;6246;50.826;4.712;2022-07-23T07:26:26;2.15;;;2.05;;
12363;SDS011;6246;50.826;4.712;2022-07-23T07:28:52;1.95;;;1.85;;
12363;SDS011;6246;50.826;4.712;2022-07-23T07:31:18;3.28;;;2.10;;
12363;SDS011;6246;50.826;4.712;2022-07-23T07:33:44;2.08;;;1.98;;
12363;SDS011;6246;50.826;4.712;2022-07-23T07:36:10;1.92;;;1.80;;
12363;SDS011;6246;50.826;4.712;2022-07-23T07:38:36;2.17;;;2.03;;
12363;SDS011;6246;50.826;4.712;2022-07-23T07:41:02;2.25;;;2.00;;
12363;SDS011;6246;50.826;4.712;2022-07-23T07:43:28;1.90;;;1.80;;
12363;SDS011;6246;50.826;4.712;2022-07-23T07:45:54;2.33;;;2.13;;
12363;SDS011;6246;50.826;4.712;2022-07-23T07:48:20;2.28;;;2.00;;
12363;SDS011;6246;50.826;4.712;2022-07-23T07:50:46;2.20;;;2.10;;
12363;SDS011;6246;50.826;4.712;2022-07-23T07:53:12;2.00;;;1.85;;
12363;SDS011;6246;50.826;4.712;2022-07-23T07:55:38;2.13;;;2.03;;
12363;SDS011;6246;50.826;4.712;2022-07-23T07:58:04;2.00;;;1.90;;
12363;SDS011;6246;50.826;4.712;2022-07-23T08:00:30;2.25;;;2.05;;
12363;SDS011;6246;50.826;4.712;2022-07-23T08:02:57;1.75;;;1.65;;
12363;SDS011;6246;50.826;4.712;2022-07-23T08:05:24;2.17;;;2.08;;
12363;SDS011;6246;50.826;4.712;2022-07-23T08:07:51;1.90;;;1.70;;
12363;SDS011;6246;50.826;4.712;2022-07-23T08:10:17;2.20;;;2.00;;
12363;SDS011;6246;50.826;4.712;2022-07-23T08:12:47;2.13;;;1.95;;
12363;SDS011;6246;50.826;4.712;2022-07-23T08:15:15;2.15;;;2.05;;
12363;SDS011;6246;50.826;4.712;2022-07-23T08:17:41;1.73;;;1.63;;
12363;SDS011;6246;50.826;4.712;2022-07-23T08:20:08;1.95;;;1.85;;
12363;SDS011;6246;50.826;4.712;2022-07-23T08:25:20;1.83;;;1.70;;
12363;SDS011;6246;50.826;4.712;2022-07-23T08:27:46;2.85;;;1.92;;
12363;SDS011;6246;50.826;4.712;2022-07-23T08:30:14;2.22;;;2.08;;
12363;SDS011;6246;50.826;4.712;2022-07-23T08:35:16;2.60;;;1.92;;
12363;SDS011;6246;50.826;4.712;2022-07-23T08:37:42;1.83;;;1.73;;
12363;SDS011;6246;50.826;4.712;2022-07-23T08:40:08;1.70;;;1.60;;
12363;SDS011;6246;50.826;4.712;2022-07-23T08:42:35;2.47;;;2.03;;
12363;SDS011;6246;50.826;4.712;2022-07-23T08:45:02;1.92;;;1.83;;
12363;SDS011;6246;50.826;4.712;2022-07-23T08:47:29;2.17;;;2.08;;
12363;SDS011;6246;50.826;4.712;2022-07-23T08:49:56;1.83;;;1.73;;
12363;SDS011;6246;50.826;4.712;2022-07-23T08:52:22;2.15;;;2.05;;
12363;SDS011;6246;50.826;4.712;2022-07-23T08:54:48;1.92;;;1.83;;
12363;SDS011;6246;50.826;4.712;2022-07-23T08:57:14;2.65;;;1.90;;
12363;SDS011;6246;50.826;4.712;2022-07-23T08:59:40;2.20;;;2.05;;
12363;SDS011;6246;50.826;4.712;2022-07-23T09:02:06;2.13;;;1.83;;
12363;SDS011;6246;50.826;4.712;2022-07-23T09:04:32;1.95;;;1.85;;
12363;SDS011;6246;50.826;4.712;2022-07-23T09:06:58;1.92;;;1.83;;
12363;SDS011;6246;50.826;4.712;2022-07-23T09:09:24;1.65;;;1.60;;
12363;SDS011;6246;50.826;4.712;2022-07-23T09:12:01;1.65;;;1.60;;
12363;SDS011;6246;50.826;4.712;2022-07-23T09:14:39;2.38;;;1.67;;
12363;SDS011;6246;50.826;4.712;2022-07-23T09:17:08;2.15;;;2.05;;
12363;SDS011;6246;50.826;4.712;2022-07-23T09:19:35;1.92;;;1.83;;
12363;SDS011;6246;50.826;4.712;2022-07-23T09:22:20;2.17;;;2.03;;
12363;SDS011;6246;50.826;4.712;2022-07-23T09:30:16;2.00;;;1.90;;
12363;SDS011;6246;50.826;4.712;2022-07-23T09:32:42;1.63;;;1.50;;
12363;SDS011;6246;50.826;4.712;2022-07-23T09:35:08;2.30;;;2.10;;
12363;SDS011;6246;50.826;4.712;2022-07-23T09:37:34;1.98;;;1.70;;
12363;SDS011;6246;50.826;4.712;2022-07-23T09:40:08;1.95;;;1.70;;
12363;SDS011;6246;50.826;4.712;2022-07-23T09:42:36;1.40;;;1.40;;
12363;SDS011;6246;50.826;4.712;2022-07-23T09:45:03;2.15;;;1.75;;
12363;SDS011;6246;50.826;4.712;2022-07-23T09:47:30;1.88;;;1.77;;
12363;SDS011;6246;50.826;4.712;2022-07-23T09:50:06;2.58;;;1.70;;
12363;SDS011;6246;50.826;4.712;2022-07-23T09:55:07;1.90;;;1.80;;
12363;SDS011;6246;50.826;4.712;2022-07-23T09:57:34;1.88;;;1.77;;
12363;SDS011;6246;50.826;4.712;2022-07-23T10:00:02;1.70;;;1.60;;
12363;SDS011;6246;50.826;4.712;2022-07-23T10:02:29;1.70;;;1.60;;
12363;SDS011;6246;50.826;4.712;2022-07-23T10:04:57;1.60;;;1.50;;
12363;SDS011;6246;50.826;4.712;2022-07-23T10:07:23;2.20;;;2.10;;
12363;SDS011;6246;50.826;4.712;2022-07-23T10:09:52;1.73;;;1.63;;
12363;SDS011;6246;50.826;4.712;2022-07-23T10:12:19;1.73;;;1.63;;
12363;SDS011;6246;50.826;4.712;2022-07-23T10:15:05;2.13;;;2.03;;
12363;SDS011;6246;50.826;4.712;2022-07-23T10:17:32;1.98;;;1.88;;
12363;SDS011;6246;50.826;4.712;2022-07-23T10:19:58;2.13;;;1.92;;
12363;SDS011;6246;50.826;4.712;2022-07-23T10:22:34;1.67;;;1.58;;
12363;SDS011;6246;50.826;4.712;2022-07-23T10:30:04;1.83;;;1.73;;
12363;SDS011;6246;50.826;4.712;2022-07-23T10:35:03;2.15;;;2.05;;
12363;SDS011;6246;50.826;4.712;2022-07-23T10:37:36;1.67;;;1.65;;
12363;SDS011;6246;50.826;4.712;2022-07-23T10:40:12;2.00;;;1.90;;
12363;SDS011;6246;50.826;4.712;2022-07-23T10:42:38;1.83;;;1.73;;
12363;SDS011;6246;50.826;4.712;2022-07-23T10:45:50;1.85;;;1.70;;
12363;SDS011;6246;50.826;4.712;2022-07-23T10:47:52;1.70;;;1.60;;
12363;SDS011;6246;50.826;4.712;2022-07-23T10:50:22;1.42;;;1.33;;
12363;SDS011;6246;50.826;4.712;2022-07-23T10:58:01;1.75;;;1.65;;
12363;SDS011;6246;50.826;4.712;2022-07-23T11:00:36;2.08;;;1.98;;
12363;SDS011;6246;50.826;4.712;2022-07-23T11:05:47;1.35;;;1.27;;
12363;SDS011;6246;50.826;4.712;2022-07-23T11:08:17;1.52;;;1.42;;
12363;SDS011;6246;50.826;4.712;2022-07-23T11:10:52;1.58;;;1.48;;
12363;SDS011;6246;50.826;4.712;2022-07-23T11:31:52;1.58;;;1.48;;
12363;SDS011;6246;50.826;4.712;2022-07-23T11:34:26;1.58;;;1.48;;
12363;SDS011;6246;50.826;4.712;2022-07-23T11:36:53;1.65;;;1.58;;
12363;SDS011;6246;50.826;4.712;2022-07-23T11:39:20;1.67;;;1.58;;
12363;SDS011;6246;50.826;4.712;2022-07-23T11:41:46;1.42;;;1.42;;
12363;SDS011;6246;50.826;4.712;2022-07-23T11:44:31;1.20;;;1.20;;
12363;SDS011;6246;50.826;4.712;2022-07-23T11:46:58;1.38;;;1.38;;
12363;SDS011;6246;50.826;4.712;2022-07-23T11:49:24;1.55;;;1.55;;
12363;SDS011;6246;50.826;4.712;2022-07-23T11:52:10;1.23;;;1.23;;
12363;SDS011;6246;50.826;4.712;2022-07-23T11:54:37;1.65;;;1.55;;
12363;SDS011;6246;50.826;4.712;2022-07-23T11:57:12;1.55;;;1.45;;
12363;SDS011;6246;50.826;4.712;2022-07-23T11:59:38;1.58;;;1.48;;
12363;SDS011;6246;50.826;4.712;2022-07-23T12:02:04;1.27;;;1.27;;
12363;SDS011;6246;50.826;4.712;2022-07-23T12:05:04;0.93;;;0.93;;
12363;SDS011;6246;50.826;4.712;2022-07-23T12:09:52;1.40;;;1.35;;
12363;SDS011;6246;50.826;4.712;2022-07-23T12:12:18;1.08;;;1.08;;
12363;SDS011;6246;50.826;4.712;2022-07-23T12:14:55;1.27;;;1.25;;
12363;SDS011;6246;50.826;4.712;2022-07-23T12:17:22;1.20;;;1.20;;
12363;SDS011;6246;50.826;4.712;2022-07-23T12:19:53;1.30;;;1.30;;
12363;SDS011;6246;50.826;4.712;2022-07-23T12:22:19;2.13;;;2.03;;
12363;SDS011;6246;50.826;4.712;2022-07-23T12:24:56;1.65;;;1.58;;
12363;SDS011;6246;50.826;4.712;2022-07-23T12:27:23;1.60;;;1.45;;
12363;SDS011;6246;50.826;4.712;2022-07-23T12:29:49;1.55;;;1.48;;
12363;SDS011;6246;50.826;4.712;2022-07-23T12:32:26;1.35;;;1.25;;
12363;SDS011;6246;50.826;4.712;2022-07-23T12:35:05;1.13;;;1.13;;
12363;SDS011;6246;50.826;4.712;2022-07-23T12:37:33;1.63;;;1.52;;
12363;SDS011;6246;50.826;4.712;2022-07-23T12:40:22;1.30;;;1.20;;
12363;SDS011;6246;50.826;4.712;2022-07-23T12:43:08;1.55;;;1.27;;
12363;SDS011;6246;50.826;4.712;2022-07-23T12:45:54;1.48;;;1.40;;
12363;SDS011;6246;50.826;4.712;2022-07-23T12:53:26;1.20;;;1.20;;
12363;SDS011;6246;50.826;4.712;2022-07-23T12:56:00;1.13;;;1.13;;
12363;SDS011;6246;50.826;4.712;2022-07-23T12:58:27;1.40;;;1.30;;
12363;SDS011;6246;50.826;4.712;2022-07-23T13:01:04;1.35;;;1.27;;
12363;SDS011;6246;50.826;4.712;2022-07-23T13:03:32;1.17;;;1.17;;
12363;SDS011;6246;50.826;4.712;2022-07-23T13:05:58;1.25;;;1.25;;
12363;SDS011;6246;50.826;4.712;2022-07-23T13:08:25;1.40;;;1.40;;
12363;SDS011;6246;50.826;4.712;2022-07-23T13:10:52;0.95;;;0.95;;
12363;SDS011;6246;50.826;4.712;2022-07-23T13:13:25;1.17;;;1.17;;
12363;SDS011;6246;50.826;4.712;2022-07-23T13:15:52;1.35;;;1.27;;
12363;SDS011;6246;50.826;4.712;2022-07-23T13:18:18;1.67;;;1.58;;
12363;SDS011;6246;50.826;4.712;2022-07-23T13:20:46;1.08;;;1.08;;
12363;SDS011;6246;50.826;4.712;2022-07-23T13:23:12;1.55;;;1.45;;
12363;SDS011;6246;50.826;4.712;2022-07-23T13:25:38;1.38;;;1.27;;
12363;SDS011;6246;50.826;4.712;2022-07-23T13:28:04;1.20;;;1.20;;
12363;SDS011;6246;50.826;4.712;2022-07-23T13:30:30;0.82;;;0.82;;
12363;SDS011;6246;50.826;4.712;2022-07-23T13:32:56;0.93;;;0.93;;
12363;SDS011;6246;50.826;4.712;2022-07-23T13:35:22;1.38;;;1.30;;
12363;SDS011;6246;50.826;4.712;2022-07-23T13:37:48;1.27;;;1.17;;
12363;SDS011;6246;50.826;4.712;2022-07-23T13:40:14;1.50;;;1.40;;
12363;SDS011;6246;50.826;4.712;2022-07-23T13:42:40;1.05;;;1.05;;
12363;SDS011;6246;50.826;4.712;2022-07-23T13:45:06;1.10;;;1.10;;
12363;SDS011;6246;50.826;4.712;2022-07-23T13:47:33;1.08;;;1.08;;
12363;SDS011;6246;50.826;4.712;2022-07-23T13:49:59;1.55;;;1.45;;
12363;SDS011;6246;50.826;4.712;2022-07-23T13:52:25;1.30;;;1.20;;
12363;SDS011;6246;50.826;4.712;2022-07-23T13:54:51;1.20;;;1.20;;
12363;SDS011;6246;50.826;4.712;2022-07-23T13:57:17;1.25;;;1.25;;
12363;SDS011;6246;50.826;4.712;2022-07-23T13:59:43;1.02;;;1.02;;
12363;SDS011;6246;50.826;4.712;2022-07-23T14:02:09;1.10;;;1.10;;
12363;SDS011;6246;50.826;4.712;2022-07-23T14:04:35;1.40;;;1.30;;
12363;SDS011;6246;50.826;4.712;2022-07-23T14:07:01;1.25;;;1.20;;
12363;SDS011;6246;50.826;4.712;2022-07-23T14:09:27;1.13;;;1.13;;
12363;SDS011;6246;50.826;4.712;2022-07-23T14:11:55;1.27;;;1.23;;
12363;SDS011;6246;50.826;4.712;2022-07-23T14:14:21;1.02;;;1.02;;
12363;SDS011;6246;50.826;4.712;2022-07-23T14:16:47;1.33;;;1.23;;
12363;SDS011;6246;50.826;4.712;2022-07-23T14:19:13;1.15;;;1.15;;
12363;SDS011;6246;50.826;4.712;2022-07-23T14:21:39;1.15;;;1.15;;
12363;SDS011;6246;50.826;4.712;2022-07-23T14:24:05;1.48;;;1.38;;
12363;SDS011;6246;50.826;4.712;2022-07-23T14:26:31;1.38;;;1.08;;
12363;SDS011;6246;50.826;4.712;2022-07-23T14:28:57;1.13;;;1.13;;
12363;SDS011;6246;50.826;4.712;2022-07-23T14:31:23;1.52;;;1.42;;
12363;SDS011;6246;50.826;4.712;2022-07-23T14:33:49;1.45;;;1.38;;
12363;SDS011;6246;50.826;4.712;2022-07-23T14:36:15;1.42;;;1.33;;
12363;SDS011;6246;50.826;4.712;2022-07-23T14:38:41;1.52;;;1.42;;
12363;SDS011;6246;50.826;4.712;2022-07-23T14:41:07;1.00;;;1.00;;
12363;SDS011;6246;50.826;4.712;2022-07-23T14:43:34;1.17;;;1.17;;
12363;SDS011;6246;50.826;4.712;2022-07-23T14:46:00;1.23;;;1.23;;
12363;SDS011;6246;50.826;4.712;2022-07-23T14:48:26;1.00;;;1.00;;
12363;SDS011;6246;50.826;4.712;2022-07-23T14:50:52;1.52;;;1.48;;
12363;SDS011;6246;50.826;4.712;2022-07-23T14:53:18;1.15;;;1.15;;
12363;SDS011;6246;50.826;4.712;2022-07-23T14:55:44;1.30;;;1.30;;
12363;SDS011;6246;50.826;4.712;2022-07-23T14:58:10;1.40;;;1.40;;
12363;SDS011;6246;50.826;4.712;2022-07-23T15:00:36;1.08;;;1.08;;
12363;SDS011;6246;50.826;4.712;2022-07-23T15:03:02;1.15;;;1.15;;
12363;SDS011;6246;50.826;4.712;2022-07-23T15:05:28;2.70;;;1.35;;
12363;SDS011;6246;50.826;4.712;2022-07-23T15:07:55;1.20;;;1.20;;
12363;SDS011;6246;50.826;4.712;2022-07-23T15:10:21;1.10;;;1.10;;
12363;SDS011;6246;50.826;4.712;2022-07-23T15:12:47;1.30;;;1.30;;
12363;SDS011;6246;50.826;4.712;2022-07-23T15:15:13;1.60;;;1.60;;
12363;SDS011;6246;50.826;4.712;2022-07-23T15:17:39;1.25;;;1.20;;
12363;SDS011;6246;50.826;4.712;2022-07-23T15:20:06;1.23;;;1.23;;
12363;SDS011;6246;50.826;4.712;2022-07-23T15:22:32;1.20;;;1.20;;
12363;SDS011;6246;50.826;4.712;2022-07-23T15:24:58;1.52;;;1.52;;
12363;SDS011;6246;50.826;4.712;2022-07-23T15:27:24;1.27;;;1.27;;
12363;SDS011;6246;50.826;4.712;2022-07-23T15:29:50;1.20;;;1.20;;
12363;SDS011;6246;50.826;4.712;2022-07-23T15:32:16;1.52;;;1.38;;
12363;SDS011;6246;50.826;4.712;2022-07-23T15:34:42;1.35;;;1.25;;
12363;SDS011;6246;50.826;4.712;2022-07-23T15:37:08;1.55;;;1.48;;
12363;SDS011;6246;50.826;4.712;2022-07-23T15:39:34;1.30;;;1.30;;
12363;SDS011;6246;50.826;4.712;2022-07-23T15:42:01;1.17;;;1.17;;
12363;SDS011;6246;50.826;4.712;2022-07-23T15:44:27;1.50;;;1.50;;
12363;SDS011;6246;50.826;4.712;2022-07-23T15:46:53;1.30;;;1.30;;
12363;SDS011;6246;50.826;4.712;2022-07-23T15:49:20;1.48;;;1.42;;
12363;SDS011;6246;50.826;4.712;2022-07-23T15:51:46;1.45;;;1.40;;
12363;SDS011;6246;50.826;4.712;2022-07-23T15:54:12;1.52;;;1.42;;